sensor_id;sensor_type;location;lat;lon;timestamp;temperature;humidity
14682;DHT22;7429;52.498;13.480;2024-03-08T00:02:53;2.30;99.90
14682;DHT22;7429;52.498;13.480;2024-03-08T00:06:05;2.30;99.90
14682;DHT22;7429;52.498;13.480;2024-03-08T00:09:11;2.30;99.90
14682;DHT22;7429;52.498;13.480;2024-03-08T00:12:39;2.20;99.90
14682;DHT22;7429;52.498;13.480;2024-03-08T00:19:48;2.00;99.90
14682;DHT22;7429;52.498;13.480;2024-03-08T00:22:56;2.00;99.90
14682;DHT22;7429;52.498;13.480;2024-03-08T00:26:16;1.90;99.90
14682;DHT22;7429;52.498;13.480;2024-03-08T00:29:28;1.90;99.90
14682;DHT22;7429;52.498;13.480;2024-03-08T00:32:36;1.90;99.90
14682;DHT22;7429;52.498;13.480;2024-03-08T00:35:49;2.00;99.90
14682;DHT22;7429;52.498;13.480;2024-03-08T00:39:04;1.90;99.90
14682;DHT22;7429;52.498;13.480;2024-03-08T00:42:19;1.90;99.90
14682;DHT22;7429;52.498;13.480;2024-03-08T00:45:28;1.90;99.90
14682;DHT22;7429;52.498;13.480;2024-03-08T00:48:47;1.90;99.90
14682;DHT22;7429;52.498;13.480;2024-03-08T00:52:06;1.80;99.90
14682;DHT22;7429;52.498;13.480;2024-03-08T00:55:20;1.90;99.90
14682;DHT22;7429;52.498;13.480;2024-03-08T00:58:39;1.80;99.90
14682;DHT22;7429;52.498;13.480;2024-03-08T01:01:50;1.80;99.90
14682;DHT22;7429;52.498;13.480;2024-03-08T01:04:56;1.70;99.90
14682;DHT22;7429;52.498;13.480;2024-03-08T01:08:14;1.60;99.90
14682;DHT22;7429;52.498;13.480;2024-03-08T01:11:22;1.60;99.90
14682;DHT22;7429;52.498;13.480;2024-03-08T01:14:41;1.60;99.90
14682;DHT22;7429;52.498;13.480;2024-03-08T01:17:52;1.50;99.90
14682;DHT22;7429;52.498;13.480;2024-03-08T01:21:05;1.50;99.90
14682;DHT22;7429;52.498;13.480;2024-03-08T01:24:25;1.50;99.90
14682;DHT22;7429;52.498;13.480;2024-03-08T01:27:38;1.30;99.90
14682;DHT22;7429;52.498;13.480;2024-03-08T01:30:48;1.30;99.90
14682;DHT22;7429;52.498;13.480;2024-03-08T01:34:00;1.30;99.90
14682;DHT22;7429;52.498;13.480;2024-03-08T01:37:12;1.20;99.90
14682;DHT22;7429;52.498;13.480;2024-03-08T01:40:23;1.20;99.90
14682;DHT22;7429;52.498;13.480;2024-03-08T01:43:32;1.10;99.90
14682;DHT22;7429;52.498;13.480;2024-03-08T01:46:42;1.20;99.90
14682;DHT22;7429;52.498;13.480;2024-03-08T01:49:46;1.10;99.90
14682;DHT22;7429;52.498;13.480;2024-03-08T01:52:56;1.00;99.90
14682;DHT22;7429;52.498;13.480;2024-03-08T01:56:04;0.90;99.90
14682;DHT22;7429;52.498;13.480;2024-03-08T01:59:16;0.90;99.90
14682;DHT22;7429;52.498;13.480;2024-03-08T02:02:25;0.80;99.90
14682;DHT22;7429;52.498;13.480;2024-03-08T02:05:29;0.90;99.90
14682;DHT22;7429;52.498;13.480;2024-03-08T02:08:35;0.80;99.90
14682;DHT22;7429;52.498;13.480;2024-03-08T02:11:51;0.70;99.90
14682;DHT22;7429;52.498;13.480;2024-03-08T02:15:50;0.70;99.90
14682;DHT22;7429;52.498;13.480;2024-03-08T02:18:59;0.70;99.90
14682;DHT22;7429;52.498;13.480;2024-03-08T02:22:05;0.80;99.90
14682;DHT22;7429;52.498;13.480;2024-03-08T02:25:09;0.70;99.90
14682;DHT22;7429;52.498;13.480;2024-03-08T02:28:15;0.60;99.90
14682;DHT22;7429;52.498;13.480;2024-03-08T02:31:28;0.60;99.90
14682;DHT22;7429;52.498;13.480;2024-03-08T02:34:37;0.60;99.90
14682;DHT22;7429;52.498;13.480;2024-03-08T02:37:44;0.70;99.90
14682;DHT22;7429;52.498;13.480;2024-03-08T02:40:53;0.60;99.90
14682;DHT22;7429;52.498;13.480;2024-03-08T02:43:57;0.60;99.90
14682;DHT22;7429;52.498;13.480;2024-03-08T02:47:11;0.60;99.90
14682;DHT22;7429;52.498;13.480;2024-03-08T02:50:17;0.60;99.90
14682;DHT22;7429;52.498;13.480;2024-03-08T02:53:25;0.60;99.90
14682;DHT22;7429;52.498;13.480;2024-03-08T02:56:32;0.70;99.90
14682;DHT22;7429;52.498;13.480;2024-03-08T02:59:37;0.60;99.90
14682;DHT22;7429;52.498;13.480;2024-03-08T03:02:43;0.60;99.90
14682;DHT22;7429;52.498;13.480;2024-03-08T03:05:47;0.70;99.90
14682;DHT22;7429;52.498;13.480;2024-03-08T03:08:53;0.70;99.90
14682;DHT22;7429;52.498;13.480;2024-03-08T03:11:56;0.60;99.90
14682;DHT22;7429;52.498;13.480;2024-03-08T03:15:05;0.70;99.90
14682;DHT22;7429;52.498;13.480;2024-03-08T03:18:14;0.60;99.90
14682;DHT22;7429;52.498;13.480;2024-03-08T03:21:28;0.70;99.90
14682;DHT22;7429;52.498;13.480;2024-03-08T03:24:39;0.70;99.90
14682;DHT22;7429;52.498;13.480;2024-03-08T03:27:43;0.60;99.90
14682;DHT22;7429;52.498;13.480;2024-03-08T03:30:55;0.60;99.90
14682;DHT22;7429;52.498;13.480;2024-03-08T03:34:06;0.60;99.90
14682;DHT22;7429;52.498;13.480;2024-03-08T03:37:16;0.70;99.90
14682;DHT22;7429;52.498;13.480;2024-03-08T03:40:36;0.70;99.90
14682;DHT22;7429;52.498;13.480;2024-03-08T03:43:43;0.60;99.90
14682;DHT22;7429;52.498;13.480;2024-03-08T03:46:50;0.60;99.90
14682;DHT22;7429;52.498;13.480;2024-03-08T03:49:56;0.70;99.90
14682;DHT22;7429;52.498;13.480;2024-03-08T03:53:04;0.70;99.90
14682;DHT22;7429;52.498;13.480;2024-03-08T03:56:16;0.70;99.90
14682;DHT22;7429;52.498;13.480;2024-03-08T03:59:22;0.60;99.90
14682;DHT22;7429;52.498;13.480;2024-03-08T04:02:30;0.60;99.90
14682;DHT22;7429;52.498;13.480;2024-03-08T04:05:36;0.60;99.90
14682;DHT22;7429;52.498;13.480;2024-03-08T04:08:40;0.60;99.90
14682;DHT22;7429;52.498;13.480;2024-03-08T04:11:46;0.60;99.90
14682;DHT22;7429;52.498;13.480;2024-03-08T04:14:55;0.50;99.90
14682;DHT22;7429;52.498;13.480;2024-03-08T04:18:08;0.50;99.90
14682;DHT22;7429;52.498;13.480;2024-03-08T04:21:16;0.50;99.90
14682;DHT22;7429;52.498;13.480;2024-03-08T04:24:23;0.60;99.90
14682;DHT22;7429;52.498;13.480;2024-03-08T04:27:31;0.50;99.90
14682;DHT22;7429;52.498;13.480;2024-03-08T04:30:41;0.50;99.90
14682;DHT22;7429;52.498;13.480;2024-03-08T04:33:48;0.50;99.90
14682;DHT22;7429;52.498;13.480;2024-03-08T04:36:54;0.40;99.90
14682;DHT22;7429;52.498;13.480;2024-03-08T04:40:07;0.40;99.90
14682;DHT22;7429;52.498;13.480;2024-03-08T04:43:18;0.40;99.90
14682;DHT22;7429;52.498;13.480;2024-03-08T04:46:27;0.40;99.90
14682;DHT22;7429;52.498;13.480;2024-03-08T04:49:40;0.40;99.90
14682;DHT22;7429;52.498;13.480;2024-03-08T04:52:49;0.40;99.90
14682;DHT22;7429;52.498;13.480;2024-03-08T04:55:56;0.40;99.90
14682;DHT22;7429;52.498;13.480;2024-03-08T04:59:04;0.30;99.90
14682;DHT22;7429;52.498;13.480;2024-03-08T05:02:17;0.30;99.90
14682;DHT22;7429;52.498;13.480;2024-03-08T05:05:21;0.30;99.90
14682;DHT22;7429;52.498;13.480;2024-03-08T05:08:27;0.20;99.90
14682;DHT22;7429;52.498;13.480;2024-03-08T05:11:41;0.20;99.90
14682;DHT22;7429;52.498;13.480;2024-03-08T05:14:58;0.20;99.90
14682;DHT22;7429;52.498;13.480;2024-03-08T05:18:07;0.20;99.90
14682;DHT22;7429;52.498;13.480;2024-03-08T05:21:25;0.10;99.90
14682;DHT22;7429;52.498;13.480;2024-03-08T05:24:47;0.20;99.90
14682;DHT22;7429;52.498;13.480;2024-03-08T05:27:50;0.10;99.90
14682;DHT22;7429;52.498;13.480;2024-03-08T05:30:56;0.10;99.90
14682;DHT22;7429;52.498;13.480;2024-03-08T05:34:04;0.10;99.90
14682;DHT22;7429;52.498;13.480;2024-03-08T05:37:07;0.10;99.90
14682;DHT22;7429;52.498;13.480;2024-03-08T05:40:29;0.10;99.90
14682;DHT22;7429;52.498;13.480;2024-03-08T05:43:35;0.00;99.90
14682;DHT22;7429;52.498;13.480;2024-03-08T05:46:40;0.10;99.90
14682;DHT22;7429;52.498;13.480;2024-03-08T05:49:45;0.00;99.90
14682;DHT22;7429;52.498;13.480;2024-03-08T05:52:50;0.10;99.90
14682;DHT22;7429;52.498;13.480;2024-03-08T05:55:56;0.10;99.90
14682;DHT22;7429;52.498;13.480;2024-03-08T05:59:09;0.00;99.90
14682;DHT22;7429;52.498;13.480;2024-03-08T06:02:26;0.00;99.90
14682;DHT22;7429;52.498;13.480;2024-03-08T06:05:36;0.00;99.90
14682;DHT22;7429;52.498;13.480;2024-03-08T06:09:06;0.00;99.90
14682;DHT22;7429;52.498;13.480;2024-03-08T06:12:24;0.00;99.90
14682;DHT22;7429;52.498;13.480;2024-03-08T06:15:49;0.00;99.90
14682;DHT22;7429;52.498;13.480;2024-03-08T06:19:56;0.10;99.90
14682;DHT22;7429;52.498;13.480;2024-03-08T06:23:11;0.10;99.90
14682;DHT22;7429;52.498;13.480;2024-03-08T06:26:22;0.10;99.90
14682;DHT22;7429;52.498;13.480;2024-03-08T06:29:42;0.10;99.90
14682;DHT22;7429;52.498;13.480;2024-03-08T06:33:07;0.10;99.90
14682;DHT22;7429;52.498;13.480;2024-03-08T06:36:21;0.20;99.90
14682;DHT22;7429;52.498;13.480;2024-03-08T06:39:35;0.20;99.90
14682;DHT22;7429;52.498;13.480;2024-03-08T06:43:00;0.30;99.90
14682;DHT22;7429;52.498;13.480;2024-03-08T06:46:03;0.40;99.90
14682;DHT22;7429;52.498;13.480;2024-03-08T06:49:24;0.40;99.90
14682;DHT22;7429;52.498;13.480;2024-03-08T06:52:48;0.50;99.90
14682;DHT22;7429;52.498;13.480;2024-03-08T06:55:58;0.50;99.90
14682;DHT22;7429;52.498;13.480;2024-03-08T06:59:02;0.60;99.90
14682;DHT22;7429;52.498;13.480;2024-03-08T07:02:12;0.70;99.90
14682;DHT22;7429;52.498;13.480;2024-03-08T07:05:24;0.70;99.90
14682;DHT22;7429;52.498;13.480;2024-03-08T07:08:34;0.90;99.90
14682;DHT22;7429;52.498;13.480;2024-03-08T07:15:37;1.10;99.90
14682;DHT22;7429;52.498;13.480;2024-03-08T07:18:47;1.20;99.90
14682;DHT22;7429;52.498;13.480;2024-03-08T07:21:56;1.30;99.90
14682;DHT22;7429;52.498;13.480;2024-03-08T07:25:01;1.30;99.90
14682;DHT22;7429;52.498;13.480;2024-03-08T07:28:23;1.40;99.90
14682;DHT22;7429;52.498;13.480;2024-03-08T07:31:27;1.50;99.90
14682;DHT22;7429;52.498;13.480;2024-03-08T07:34:40;1.60;99.90
14682;DHT22;7429;52.498;13.480;2024-03-08T07:37:43;1.70;99.90
14682;DHT22;7429;52.498;13.480;2024-03-08T07:40:56;1.70;99.90
14682;DHT22;7429;52.498;13.480;2024-03-08T07:44:00;1.80;99.90
14682;DHT22;7429;52.498;13.480;2024-03-08T07:47:06;1.90;99.90
14682;DHT22;7429;52.498;13.480;2024-03-08T07:50:37;2.00;99.90
14682;DHT22;7429;52.498;13.480;2024-03-08T07:53:41;2.10;99.90
14682;DHT22;7429;52.498;13.480;2024-03-08T07:56:54;2.20;99.90
14682;DHT22;7429;52.498;13.480;2024-03-08T08:00:18;2.40;99.90
14682;DHT22;7429;52.498;13.480;2024-03-08T08:03:38;2.40;99.90
14682;DHT22;7429;52.498;13.480;2024-03-08T08:06:46;2.60;99.90
14682;DHT22;7429;52.498;13.480;2024-03-08T08:09:49;2.70;99.90
14682;DHT22;7429;52.498;13.480;2024-03-08T08:12:57;2.70;99.90
14682;DHT22;7429;52.498;13.480;2024-03-08T08:16:00;2.90;99.90
14682;DHT22;7429;52.498;13.480;2024-03-08T08:19:14;3.00;99.90
14682;DHT22;7429;52.498;13.480;2024-03-08T08:22:22;3.10;99.90
14682;DHT22;7429;52.498;13.480;2024-03-08T08:25:27;3.20;99.90
14682;DHT22;7429;52.498;13.480;2024-03-08T08:33:43;3.60;99.90
14682;DHT22;7429;52.498;13.480;2024-03-08T08:37:03;3.70;99.90
14682;DHT22;7429;52.498;13.480;2024-03-08T08:40:11;3.80;99.90
14682;DHT22;7429;52.498;13.480;2024-03-08T08:43:34;3.90;99.90
14682;DHT22;7429;52.498;13.480;2024-03-08T08:47:08;4.00;99.90
14682;DHT22;7429;52.498;13.480;2024-03-08T08:50:27;4.10;99.90
14682;DHT22;7429;52.498;13.480;2024-03-08T08:53:49;4.10;99.90
14682;DHT22;7429;52.498;13.480;2024-03-08T08:56:58;4.40;99.90
14682;DHT22;7429;52.498;13.480;2024-03-08T09:00:15;4.40;99.90
14682;DHT22;7429;52.498;13.480;2024-03-08T09:03:53;4.50;99.90
14682;DHT22;7429;52.498;13.480;2024-03-08T09:17:38;5.00;99.90
14682;DHT22;7429;52.498;13.480;2024-03-08T09:21:14;5.10;99.90
14682;DHT22;7429;52.498;13.480;2024-03-08T09:24:42;5.20;99.90
14682;DHT22;7429;52.498;13.480;2024-03-08T09:27:51;5.30;99.90
14682;DHT22;7429;52.498;13.480;2024-03-08T09:31:03;5.30;99.90
14682;DHT22;7429;52.498;13.480;2024-03-08T09:34:07;5.30;99.90
14682;DHT22;7429;52.498;13.480;2024-03-08T09:37:17;5.50;99.90
14682;DHT22;7429;52.498;13.480;2024-03-08T09:40:26;5.50;99.90
14682;DHT22;7429;52.498;13.480;2024-03-08T09:43:32;5.70;99.90
14682;DHT22;7429;52.498;13.480;2024-03-08T09:46:36;6.00;99.90
14682;DHT22;7429;52.498;13.480;2024-03-08T09:50:10;6.20;99.90
14682;DHT22;7429;52.498;13.480;2024-03-08T09:53:47;6.40;99.90
14682;DHT22;7429;52.498;13.480;2024-03-08T09:57:19;6.50;99.90
14682;DHT22;7429;52.498;13.480;2024-03-08T10:00:28;6.70;99.90
14682;DHT22;7429;52.498;13.480;2024-03-08T10:03:40;6.80;99.90
14682;DHT22;7429;52.498;13.480;2024-03-08T10:06:58;6.90;99.90
14682;DHT22;7429;52.498;13.480;2024-03-08T10:10:20;7.10;99.90
14682;DHT22;7429;52.498;13.480;2024-03-08T10:13:32;7.20;99.90
14682;DHT22;7429;52.498;13.480;2024-03-08T10:16:58;6.90;99.90
14682;DHT22;7429;52.498;13.480;2024-03-08T10:20:13;7.00;99.90
14682;DHT22;7429;52.498;13.480;2024-03-08T10:23:25;7.20;99.90
14682;DHT22;7429;52.498;13.480;2024-03-08T10:26:41;7.40;99.90
14682;DHT22;7429;52.498;13.480;2024-03-08T10:29:49;7.50;99.90
14682;DHT22;7429;52.498;13.480;2024-03-08T10:33:00;7.70;99.90
14682;DHT22;7429;52.498;13.480;2024-03-08T10:36:09;7.90;99.90
14682;DHT22;7429;52.498;13.480;2024-03-08T10:39:24;7.90;99.90
14682;DHT22;7429;52.498;13.480;2024-03-08T10:42:30;7.80;99.90
14682;DHT22;7429;52.498;13.480;2024-03-08T10:45:44;8.00;99.90
14682;DHT22;7429;52.498;13.480;2024-03-08T10:48:55;8.20;99.90
14682;DHT22;7429;52.498;13.480;2024-03-08T10:52:05;8.30;99.90
14682;DHT22;7429;52.498;13.480;2024-03-08T10:55:18;8.40;99.90
14682;DHT22;7429;52.498;13.480;2024-03-08T10:58:26;8.50;99.90
14682;DHT22;7429;52.498;13.480;2024-03-08T11:01:35;8.60;99.90
14682;DHT22;7429;52.498;13.480;2024-03-08T11:04:46;8.70;99.90
14682;DHT22;7429;52.498;13.480;2024-03-08T11:07:56;8.60;99.90
14682;DHT22;7429;52.498;13.480;2024-03-08T11:11:35;8.80;99.90
14682;DHT22;7429;52.498;13.480;2024-03-08T11:32:12;9.90;99.90
14682;DHT22;7429;52.498;13.480;2024-03-08T11:35:51;10.00;99.90
14682;DHT22;7429;52.498;13.480;2024-03-08T11:39:18;10.00;99.90
14682;DHT22;7429;52.498;13.480;2024-03-08T11:42:43;9.90;99.90
14682;DHT22;7429;52.498;13.480;2024-03-08T11:49:47;10.10;99.90
14682;DHT22;7429;52.498;13.480;2024-03-08T11:52:53;10.20;99.90
14682;DHT22;7429;52.498;13.480;2024-03-08T11:56:12;10.20;99.90
14682;DHT22;7429;52.498;13.480;2024-03-08T11:59:41;10.20;99.90
14682;DHT22;7429;52.498;13.480;2024-03-08T12:03:12;10.00;99.90
14682;DHT22;7429;52.498;13.480;2024-03-08T12:06:18;10.20;99.90
14682;DHT22;7429;52.498;13.480;2024-03-08T12:09:34;10.20;99.90
14682;DHT22;7429;52.498;13.480;2024-03-08T12:12:58;10.30;99.90
14682;DHT22;7429;52.498;13.480;2024-03-08T12:16:17;10.20;99.90
14682;DHT22;7429;52.498;13.480;2024-03-08T12:19:26;10.40;99.90
14682;DHT22;7429;52.498;13.480;2024-03-08T12:22:35;10.60;99.90
14682;DHT22;7429;52.498;13.480;2024-03-08T12:25:52;10.70;99.90
14682;DHT22;7429;52.498;13.480;2024-03-08T12:29:18;10.50;99.90
14682;DHT22;7429;52.498;13.480;2024-03-08T12:32:38;10.70;99.90
14682;DHT22;7429;52.498;13.480;2024-03-08T12:35:59;10.50;99.90
14682;DHT22;7429;52.498;13.480;2024-03-08T12:39:16;10.40;99.90
14682;DHT22;7429;52.498;13.480;2024-03-08T12:42:35;10.70;99.90
14682;DHT22;7429;52.498;13.480;2024-03-08T12:45:46;10.30;99.90
14682;DHT22;7429;52.498;13.480;2024-03-08T12:48:58;10.40;99.90
14682;DHT22;7429;52.498;13.480;2024-03-08T12:52:14;10.90;99.90
14682;DHT22;7429;52.498;13.480;2024-03-08T13:00:15;11.30;99.90
14682;DHT22;7429;52.498;13.480;2024-03-08T13:04:18;11.00;99.90
14682;DHT22;7429;52.498;13.480;2024-03-08T13:07:44;10.90;99.90
14682;DHT22;7429;52.498;13.480;2024-03-08T13:11:02;11.00;99.90
14682;DHT22;7429;52.498;13.480;2024-03-08T13:14:27;11.20;99.90
14682;DHT22;7429;52.498;13.480;2024-03-08T13:17:56;11.40;99.90
14682;DHT22;7429;52.498;13.480;2024-03-08T13:21:36;11.50;99.90
14682;DHT22;7429;52.498;13.480;2024-03-08T13:24:57;11.40;99.90
14682;DHT22;7429;52.498;13.480;2024-03-08T13:28:15;11.20;99.90
14682;DHT22;7429;52.498;13.480;2024-03-08T13:31:32;11.00;99.90
14682;DHT22;7429;52.498;13.480;2024-03-08T13:34:41;11.20;99.90
14682;DHT22;7429;52.498;13.480;2024-03-08T13:37:48;11.40;99.90
14682;DHT22;7429;52.498;13.480;2024-03-08T13:40:55;11.60;99.90
14682;DHT22;7429;52.498;13.480;2024-03-08T13:44:04;11.60;99.90
14682;DHT22;7429;52.498;13.480;2024-03-08T13:47:10;11.60;99.90
14682;DHT22;7429;52.498;13.480;2024-03-08T13:50:14;11.80;99.90
14682;DHT22;7429;52.498;13.480;2024-03-08T13:53:25;11.80;99.90
14682;DHT22;7429;52.498;13.480;2024-03-08T13:56:36;11.60;99.90
14682;DHT22;7429;52.498;13.480;2024-03-08T14:00:09;11.70;99.90
14682;DHT22;7429;52.498;13.480;2024-03-08T14:03:43;11.50;99.90
14682;DHT22;7429;52.498;13.480;2024-03-08T14:06:50;11.40;99.90
14682;DHT22;7429;52.498;13.480;2024-03-08T14:10:08;11.30;99.90
14682;DHT22;7429;52.498;13.480;2024-03-08T14:13:15;11.30;99.90
14682;DHT22;7429;52.498;13.480;2024-03-08T14:16:30;11.50;99.90
14682;DHT22;7429;52.498;13.480;2024-03-08T14:19:36;11.30;99.90
14682;DHT22;7429;52.498;13.480;2024-03-08T14:22:51;11.30;99.90
14682;DHT22;7429;52.498;13.480;2024-03-08T14:25:57;11.40;99.90
14682;DHT22;7429;52.498;13.480;2024-03-08T14:29:06;11.20;99.90
14682;DHT22;7429;52.498;13.480;2024-03-08T14:32:19;11.40;99.90
14682;DHT22;7429;52.498;13.480;2024-03-08T14:35:32;11.70;99.90
14682;DHT22;7429;52.498;13.480;2024-03-08T14:38:41;11.80;99.90
14682;DHT22;7429;52.498;13.480;2024-03-08T14:41:45;11.40;99.90
14682;DHT22;7429;52.498;13.480;2024-03-08T14:44:56;11.20;99.90
14682;DHT22;7429;52.498;13.480;2024-03-08T14:48:07;11.30;99.90
14682;DHT22;7429;52.498;13.480;2024-03-08T14:51:21;11.60;99.90
14682;DHT22;7429;52.498;13.480;2024-03-08T14:54:37;11.50;99.90
14682;DHT22;7429;52.498;13.480;2024-03-08T14:57:43;11.60;99.90
14682;DHT22;7429;52.498;13.480;2024-03-08T15:00:54;11.40;99.90
14682;DHT22;7429;52.498;13.480;2024-03-08T15:04:10;11.30;99.90
14682;DHT22;7429;52.498;13.480;2024-03-08T15:07:17;11.30;99.90
14682;DHT22;7429;52.498;13.480;2024-03-08T15:10:21;11.40;99.90
14682;DHT22;7429;52.498;13.480;2024-03-08T15:13:37;11.30;99.90
14682;DHT22;7429;52.498;13.480;2024-03-08T15:16:45;11.50;99.90
14682;DHT22;7429;52.498;13.480;2024-03-08T15:20:00;11.30;99.90
14682;DHT22;7429;52.498;13.480;2024-03-08T15:23:08;11.20;99.90
14682;DHT22;7429;52.498;13.480;2024-03-08T15:26:28;11.20;99.90
14682;DHT22;7429;52.498;13.480;2024-03-08T15:29:33;10.90;99.90
14682;DHT22;7429;52.498;13.480;2024-03-08T15:32:39;10.70;99.90
14682;DHT22;7429;52.498;13.480;2024-03-08T15:36:19;10.60;99.90
14682;DHT22;7429;52.498;13.480;2024-03-08T15:39:32;10.40;99.90
14682;DHT22;7429;52.498;13.480;2024-03-08T15:42:43;10.30;99.90
14682;DHT22;7429;52.498;13.480;2024-03-08T15:46:07;10.30;99.90
14682;DHT22;7429;52.498;13.480;2024-03-08T15:49:12;10.30;99.90
14682;DHT22;7429;52.498;13.480;2024-03-08T15:52:24;10.10;99.90
14682;DHT22;7429;52.498;13.480;2024-03-08T15:55:42;9.90;99.90
14682;DHT22;7429;52.498;13.480;2024-03-08T15:59:01;9.90;99.90
14682;DHT22;7429;52.498;13.480;2024-03-08T16:02:12;9.90;99.90
14682;DHT22;7429;52.498;13.480;2024-03-08T16:05:20;9.70;99.90
14682;DHT22;7429;52.498;13.480;2024-03-08T16:08:44;9.60;99.90
14682;DHT22;7429;52.498;13.480;2024-03-08T16:11:59;9.60;99.90
14682;DHT22;7429;52.498;13.480;2024-03-08T16:15:13;9.50;99.90
14682;DHT22;7429;52.498;13.480;2024-03-08T16:18:31;9.50;99.90
14682;DHT22;7429;52.498;13.480;2024-03-08T16:21:46;9.50;99.90
14682;DHT22;7429;52.498;13.480;2024-03-08T16:25:08;9.40;99.90
14682;DHT22;7429;52.498;13.480;2024-03-08T16:28:19;9.30;99.90
14682;DHT22;7429;52.498;13.480;2024-03-08T16:31:32;9.20;99.90
14682;DHT22;7429;52.498;13.480;2024-03-08T16:38:22;9.00;99.90
14682;DHT22;7429;52.498;13.480;2024-03-08T16:45:19;8.90;99.90
14682;DHT22;7429;52.498;13.480;2024-03-08T16:48:54;8.80;99.90
14682;DHT22;7429;52.498;13.480;2024-03-08T16:52:07;8.70;99.90
14682;DHT22;7429;52.498;13.480;2024-03-08T16:55:13;8.60;99.90
14682;DHT22;7429;52.498;13.480;2024-03-08T16:58:19;8.50;99.90
14682;DHT22;7429;52.498;13.480;2024-03-08T17:01:27;8.40;99.90
14682;DHT22;7429;52.498;13.480;2024-03-08T17:04:33;8.40;99.90
14682;DHT22;7429;52.498;13.480;2024-03-08T17:07:42;8.40;99.90
14682;DHT22;7429;52.498;13.480;2024-03-08T17:10:48;8.30;99.90
14682;DHT22;7429;52.498;13.480;2024-03-08T17:13:53;8.20;99.90
14682;DHT22;7429;52.498;13.480;2024-03-08T17:17:03;8.20;99.90
14682;DHT22;7429;52.498;13.480;2024-03-08T17:25:28;8.00;99.90
14682;DHT22;7429;52.498;13.480;2024-03-08T17:28:39;7.90;99.90
14682;DHT22;7429;52.498;13.480;2024-03-08T17:32:56;7.80;99.90
14682;DHT22;7429;52.498;13.480;2024-03-08T17:37:38;7.70;99.90
14682;DHT22;7429;52.498;13.480;2024-03-08T17:40:58;7.50;99.90
14682;DHT22;7429;52.498;13.480;2024-03-08T17:44:28;7.50;99.90
14682;DHT22;7429;52.498;13.480;2024-03-08T17:47:37;7.40;99.90
14682;DHT22;7429;52.498;13.480;2024-03-08T17:51:38;7.30;99.90
14682;DHT22;7429;52.498;13.480;2024-03-08T17:54:51;7.30;99.90
14682;DHT22;7429;52.498;13.480;2024-03-08T17:58:24;7.20;99.90
14682;DHT22;7429;52.498;13.480;2024-03-08T18:01:53;7.20;99.90
14682;DHT22;7429;52.498;13.480;2024-03-08T18:05:02;7.10;99.90
14682;DHT22;7429;52.498;13.480;2024-03-08T18:08:14;7.00;99.90
14682;DHT22;7429;52.498;13.480;2024-03-08T18:11:20;7.00;99.90
14682;DHT22;7429;52.498;13.480;2024-03-08T18:14:24;6.90;99.90
14682;DHT22;7429;52.498;13.480;2024-03-08T18:17:29;6.80;99.90
14682;DHT22;7429;52.498;13.480;2024-03-08T18:20:33;6.80;99.90
14682;DHT22;7429;52.498;13.480;2024-03-08T18:23:49;6.80;99.90
14682;DHT22;7429;52.498;13.480;2024-03-08T18:27:13;6.70;99.90
14682;DHT22;7429;52.498;13.480;2024-03-08T18:30:19;6.70;99.90
14682;DHT22;7429;52.498;13.480;2024-03-08T18:33:26;6.70;99.90
14682;DHT22;7429;52.498;13.480;2024-03-08T18:36:34;6.60;99.90
14682;DHT22;7429;52.498;13.480;2024-03-08T18:39:43;6.50;99.90
14682;DHT22;7429;52.498;13.480;2024-03-08T18:42:55;6.50;99.90
14682;DHT22;7429;52.498;13.480;2024-03-08T18:46:06;6.40;99.90
14682;DHT22;7429;52.498;13.480;2024-03-08T18:49:11;6.40;99.90
14682;DHT22;7429;52.498;13.480;2024-03-08T18:52:17;6.30;99.90
14682;DHT22;7429;52.498;13.480;2024-03-08T18:55:24;6.30;99.90
14682;DHT22;7429;52.498;13.480;2024-03-08T18:58:30;6.30;99.90
14682;DHT22;7429;52.498;13.480;2024-03-08T19:01:51;6.20;99.90
14682;DHT22;7429;52.498;13.480;2024-03-08T19:05:02;6.20;99.90
14682;DHT22;7429;52.498;13.480;2024-03-08T19:08:13;6.10;99.90
14682;DHT22;7429;52.498;13.480;2024-03-08T19:11:23;6.10;99.90
14682;DHT22;7429;52.498;13.480;2024-03-08T19:14:30;6.00;99.90
14682;DHT22;7429;52.498;13.480;2024-03-08T19:17:39;5.90;99.90
14682;DHT22;7429;52.498;13.480;2024-03-08T19:20:45;5.90;99.90
14682;DHT22;7429;52.498;13.480;2024-03-08T19:23:54;5.90;99.90
14682;DHT22;7429;52.498;13.480;2024-03-08T19:27:04;5.80;99.90
14682;DHT22;7429;52.498;13.480;2024-03-08T19:30:15;5.80;99.90
14682;DHT22;7429;52.498;13.480;2024-03-08T19:33:31;5.70;99.90
14682;DHT22;7429;52.498;13.480;2024-03-08T19:36:38;5.70;99.90
14682;DHT22;7429;52.498;13.480;2024-03-08T19:39:42;5.70;99.90
14682;DHT22;7429;52.498;13.480;2024-03-08T19:42:57;5.60;99.90
14682;DHT22;7429;52.498;13.480;2024-03-08T19:46:08;5.60;99.90
14682;DHT22;7429;52.498;13.480;2024-03-08T19:49:14;5.60;99.90
14682;DHT22;7429;52.498;13.480;2024-03-08T19:52:19;5.50;99.90
14682;DHT22;7429;52.498;13.480;2024-03-08T19:55:31;5.50;99.90
14682;DHT22;7429;52.498;13.480;2024-03-08T19:58:41;5.40;99.90
14682;DHT22;7429;52.498;13.480;2024-03-08T20:02:11;5.40;99.90
14682;DHT22;7429;52.498;13.480;2024-03-08T20:05:18;5.20;99.90
14682;DHT22;7429;52.498;13.480;2024-03-08T20:08:31;5.20;99.90
14682;DHT22;7429;52.498;13.480;2024-03-08T20:11:39;5.30;99.90
14682;DHT22;7429;52.498;13.480;2024-03-08T20:14:54;5.30;99.90
14682;DHT22;7429;52.498;13.480;2024-03-08T20:18:04;5.20;99.90
14682;DHT22;7429;52.498;13.480;2024-03-08T20:21:17;5.10;99.90
14682;DHT22;7429;52.498;13.480;2024-03-08T20:24:20;5.10;99.90
14682;DHT22;7429;52.498;13.480;2024-03-08T20:27:49;5.00;99.90
14682;DHT22;7429;52.498;13.480;2024-03-08T20:34:39;5.00;99.90
14682;DHT22;7429;52.498;13.480;2024-03-08T20:37:44;4.90;99.90
14682;DHT22;7429;52.498;13.480;2024-03-08T20:40:48;4.90;99.90
14682;DHT22;7429;52.498;13.480;2024-03-08T20:43:59;4.80;99.90
14682;DHT22;7429;52.498;13.480;2024-03-08T20:47:09;4.80;99.90
14682;DHT22;7429;52.498;13.480;2024-03-08T20:50:17;4.70;99.90
14682;DHT22;7429;52.498;13.480;2024-03-08T20:53:39;4.70;99.90
14682;DHT22;7429;52.498;13.480;2024-03-08T20:56:53;4.60;99.90
14682;DHT22;7429;52.498;13.480;2024-03-08T21:00:03;4.60;99.90
14682;DHT22;7429;52.498;13.480;2024-03-08T21:03:14;4.50;99.90
14682;DHT22;7429;52.498;13.480;2024-03-08T21:06:21;4.50;99.90
14682;DHT22;7429;52.498;13.480;2024-03-08T21:09:26;4.50;99.90
14682;DHT22;7429;52.498;13.480;2024-03-08T21:12:44;4.40;99.90
14682;DHT22;7429;52.498;13.480;2024-03-08T21:15:55;4.40;99.90
14682;DHT22;7429;52.498;13.480;2024-03-08T21:19:01;4.40;99.90
14682;DHT22;7429;52.498;13.480;2024-03-08T21:22:15;4.30;99.90
14682;DHT22;7429;52.498;13.480;2024-03-08T21:25:35;4.30;99.90
14682;DHT22;7429;52.498;13.480;2024-03-08T21:28:48;4.30;99.90
14682;DHT22;7429;52.498;13.480;2024-03-08T21:31:52;4.20;99.90
14682;DHT22;7429;52.498;13.480;2024-03-08T21:35:00;4.20;99.90
14682;DHT22;7429;52.498;13.480;2024-03-08T21:38:21;4.20;99.90
14682;DHT22;7429;52.498;13.480;2024-03-08T21:41:27;4.10;99.90
14682;DHT22;7429;52.498;13.480;2024-03-08T21:44:48;4.10;99.90